sensor_id;sensor_type;location;lat;lon;timestamp;P1;durP1;ratioP1;P2;durP2;ratioP2
76131;SDS011;64877;50.994;13.650;2023-06-22T00:00:54;7.70;;;4.93;;
76131;SDS011;64877;50.994;13.650;2023-06-22T00:03:20;8.13;;;5.53;;
76131;SDS011;64877;50.994;13.650;2023-06-22T00:05:46;8.30;;;6.07;;
76131;SDS011;64877;50.994;13.650;2023-06-22T00:08:12;8.00;;;5.88;;
76131;SDS011;64877;50.994;13.650;2023-06-22T00:10:38;6.55;;;5.00;;
76131;SDS011;64877;50.994;13.650;2023-06-22T00:13:04;9.63;;;6.00;;
76131;SDS011;64877;50.994;13.650;2023-06-22T00:15:31;7.75;;;5.20;;
76131;SDS011;64877;50.994;13.650;2023-06-22T00:17:56;7.18;;;5.03;;
76131;SDS011;64877;50.994;13.650;2023-06-22T00:20:22;7.10;;;5.40;;
76131;SDS011;64877;50.994;13.650;2023-06-22T00:22:52;8.73;;;5.53;;
76131;SDS011;64877;50.994;13.650;2023-06-22T00:25:18;8.43;;;6.13;;
76131;SDS011;64877;50.994;13.650;2023-06-22T00:27:44;11.73;;;5.20;;
76131;SDS011;64877;50.994;13.650;2023-06-22T00:30:09;7.78;;;5.90;;
76131;SDS011;64877;50.994;13.650;2023-06-22T00:32:35;7.55;;;6.15;;
76131;SDS011;64877;50.994;13.650;2023-06-22T00:35:00;9.50;;;5.18;;
76131;SDS011;64877;50.994;13.650;2023-06-22T00:37:26;6.95;;;5.72;;
76131;SDS011;64877;50.994;13.650;2023-06-22T00:39:54;9.57;;;6.13;;
76131;SDS011;64877;50.994;13.650;2023-06-22T00:42:20;7.75;;;6.00;;
76131;SDS011;64877;50.994;13.650;2023-06-22T00:44:45;8.65;;;5.88;;
76131;SDS011;64877;50.994;13.650;2023-06-22T00:47:11;7.43;;;5.50;;
76131;SDS011;64877;50.994;13.650;2023-06-22T00:49:41;9.23;;;6.78;;
76131;SDS011;64877;50.994;13.650;2023-06-22T00:52:06;11.45;;;6.00;;
76131;SDS011;64877;50.994;13.650;2023-06-22T00:54:34;8.50;;;5.72;;
76131;SDS011;64877;50.994;13.650;2023-06-22T00:59:27;8.40;;;6.30;;
76131;SDS011;64877;50.994;13.650;2023-06-22T01:01:52;6.20;;;4.97;;
76131;SDS011;64877;50.994;13.650;2023-06-22T01:04:18;7.60;;;5.20;;
76131;SDS011;64877;50.994;13.650;2023-06-22T01:09:32;10.75;;;6.70;;
76131;SDS011;64877;50.994;13.650;2023-06-22T01:12:04;9.13;;;5.50;;
76131;SDS011;64877;50.994;13.650;2023-06-22T01:14:38;9.85;;;6.63;;
76131;SDS011;64877;50.994;13.650;2023-06-22T01:17:07;8.52;;;6.13;;
76131;SDS011;64877;50.994;13.650;2023-06-22T01:22:10;9.43;;;6.00;;
76131;SDS011;64877;50.994;13.650;2023-06-22T01:24:55;7.18;;;5.53;;
76131;SDS011;64877;50.994;13.650;2023-06-22T01:30:26;8.85;;;6.50;;
76131;SDS011;64877;50.994;13.650;2023-06-22T01:32:54;7.97;;;5.85;;
76131;SDS011;64877;50.994;13.650;2023-06-22T01:35:21;7.43;;;5.35;;
76131;SDS011;64877;50.994;13.650;2023-06-22T01:37:48;7.47;;;5.68;;
76131;SDS011;64877;50.994;13.650;2023-06-22T01:40:14;8.40;;;5.65;;
76131;SDS011;64877;50.994;13.650;2023-06-22T01:42:41;7.90;;;6.15;;
76131;SDS011;64877;50.994;13.650;2023-06-22T01:45:08;7.25;;;5.90;;
76131;SDS011;64877;50.994;13.650;2023-06-22T01:47:35;8.13;;;6.10;;
76131;SDS011;64877;50.994;13.650;2023-06-22T01:50:00;7.85;;;5.80;;
76131;SDS011;64877;50.994;13.650;2023-06-22T01:52:26;11.05;;;6.20;;
76131;SDS011;64877;50.994;13.650;2023-06-22T01:54:51;7.80;;;6.22;;
76131;SDS011;64877;50.994;13.650;2023-06-22T01:57:17;7.38;;;5.32;;
76131;SDS011;64877;50.994;13.650;2023-06-22T01:59:51;9.88;;;6.40;;
76131;SDS011;64877;50.994;13.650;2023-06-22T02:02:52;7.88;;;6.00;;
76131;SDS011;64877;50.994;13.650;2023-06-22T02:05:28;9.13;;;6.78;;
76131;SDS011;64877;50.994;13.650;2023-06-22T02:08:09;9.38;;;6.07;;
76131;SDS011;64877;50.994;13.650;2023-06-22T02:10:41;8.15;;;5.78;;
76131;SDS011;64877;50.994;13.650;2023-06-22T02:13:09;9.07;;;5.57;;
76131;SDS011;64877;50.994;13.650;2023-06-22T02:15:36;8.95;;;5.80;;
76131;SDS011;64877;50.994;13.650;2023-06-22T02:18:02;11.98;;;6.18;;
76131;SDS011;64877;50.994;13.650;2023-06-22T02:20:27;8.63;;;6.00;;
76131;SDS011;64877;50.994;13.650;2023-06-22T02:22:53;10.05;;;6.15;;
76131;SDS011;64877;50.994;13.650;2023-06-22T02:25:18;10.73;;;6.57;;
76131;SDS011;64877;50.994;13.650;2023-06-22T02:27:44;7.88;;;6.05;;
76131;SDS011;64877;50.994;13.650;2023-06-22T02:30:10;10.85;;;5.78;;
76131;SDS011;64877;50.994;13.650;2023-06-22T02:32:36;9.05;;;5.90;;
76131;SDS011;64877;50.994;13.650;2023-06-22T02:35:01;9.75;;;6.20;;
76131;SDS011;64877;50.994;13.650;2023-06-22T02:37:30;8.98;;;6.50;;
76131;SDS011;64877;50.994;13.650;2023-06-22T02:39:56;7.65;;;5.85;;
76131;SDS011;64877;50.994;13.650;2023-06-22T02:42:22;11.13;;;7.07;;
76131;SDS011;64877;50.994;13.650;2023-06-22T02:44:47;10.32;;;6.10;;
76131;SDS011;64877;50.994;13.650;2023-06-22T02:47:13;8.63;;;6.45;;
76131;SDS011;64877;50.994;13.650;2023-06-22T02:49:38;10.55;;;6.15;;
76131;SDS011;64877;50.994;13.650;2023-06-22T02:52:03;7.50;;;6.10;;
76131;SDS011;64877;50.994;13.650;2023-06-22T02:54:29;9.25;;;6.75;;
76131;SDS011;64877;50.994;13.650;2023-06-22T02:56:54;14.18;;;6.60;;
76131;SDS011;64877;50.994;13.650;2023-06-22T02:59:20;9.55;;;5.35;;
76131;SDS011;64877;50.994;13.650;2023-06-22T03:01:48;9.45;;;6.18;;
76131;SDS011;64877;50.994;13.650;2023-06-22T03:04:15;12.20;;;6.68;;
76131;SDS011;64877;50.994;13.650;2023-06-22T03:06:40;10.20;;;7.03;;
76131;SDS011;64877;50.994;13.650;2023-06-22T03:09:06;7.38;;;6.25;;
76131;SDS011;64877;50.994;13.650;2023-06-22T03:11:32;9.27;;;6.32;;
76131;SDS011;64877;50.994;13.650;2023-06-22T03:13:59;8.65;;;6.38;;
76131;SDS011;64877;50.994;13.650;2023-06-22T03:16:27;8.73;;;6.55;;
76131;SDS011;64877;50.994;13.650;2023-06-22T03:18:53;9.60;;;6.00;;
76131;SDS011;64877;50.994;13.650;2023-06-22T03:21:19;10.02;;;6.57;;
76131;SDS011;64877;50.994;13.650;2023-06-22T03:23:45;10.50;;;6.32;;
76131;SDS011;64877;50.994;13.650;2023-06-22T03:26:10;11.15;;;6.35;;
76131;SDS011;64877;50.994;13.650;2023-06-22T03:28:37;9.43;;;6.18;;
76131;SDS011;64877;50.994;13.650;2023-06-22T03:31:03;7.95;;;5.28;;
76131;SDS011;64877;50.994;13.650;2023-06-22T03:33:29;9.88;;;6.22;;
76131;SDS011;64877;50.994;13.650;2023-06-22T03:35:55;7.93;;;6.18;;
76131;SDS011;64877;50.994;13.650;2023-06-22T03:38:20;8.70;;;6.45;;
76131;SDS011;64877;50.994;13.650;2023-06-22T03:40:46;11.80;;;6.93;;
76131;SDS011;64877;50.994;13.650;2023-06-22T03:43:11;11.88;;;6.20;;
76131;SDS011;64877;50.994;13.650;2023-06-22T03:45:36;11.63;;;6.80;;
76131;SDS011;64877;50.994;13.650;2023-06-22T03:48:02;10.02;;;6.22;;
76131;SDS011;64877;50.994;13.650;2023-06-22T03:50:28;11.98;;;6.40;;
76131;SDS011;64877;50.994;13.650;2023-06-22T03:52:54;8.55;;;6.55;;
76131;SDS011;64877;50.994;13.650;2023-06-22T03:55:20;8.27;;;5.82;;
76131;SDS011;64877;50.994;13.650;2023-06-22T03:57:45;8.85;;;5.78;;
76131;SDS011;64877;50.994;13.650;2023-06-22T04:00:11;8.05;;;5.97;;
76131;SDS011;64877;50.994;13.650;2023-06-22T04:02:37;9.18;;;6.65;;
76131;SDS011;64877;50.994;13.650;2023-06-22T04:05:02;9.30;;;6.38;;
76131;SDS011;64877;50.994;13.650;2023-06-22T04:07:28;10.65;;;6.40;;
76131;SDS011;64877;50.994;13.650;2023-06-22T04:09:53;9.00;;;6.07;;
76131;SDS011;64877;50.994;13.650;2023-06-22T04:12:18;13.07;;;6.07;;
76131;SDS011;64877;50.994;13.650;2023-06-22T04:14:44;9.73;;;6.85;;
76131;SDS011;64877;50.994;13.650;2023-06-22T04:17:09;8.18;;;5.72;;
76131;SDS011;64877;50.994;13.650;2023-06-22T04:19:34;9.65;;;6.50;;
76131;SDS011;64877;50.994;13.650;2023-06-22T04:22:00;11.70;;;6.65;;
76131;SDS011;64877;50.994;13.650;2023-06-22T04:24:25;9.10;;;6.50;;
76131;SDS011;64877;50.994;13.650;2023-06-22T04:26:51;10.70;;;6.80;;
76131;SDS011;64877;50.994;13.650;2023-06-22T04:29:20;12.40;;;6.80;;
76131;SDS011;64877;50.994;13.650;2023-06-22T04:31:46;8.77;;;6.57;;
76131;SDS011;64877;50.994;13.650;2023-06-22T04:34:15;12.07;;;6.53;;
76131;SDS011;64877;50.994;13.650;2023-06-22T04:36:42;10.18;;;6.57;;
76131;SDS011;64877;50.994;13.650;2023-06-22T04:39:08;9.20;;;6.50;;
76131;SDS011;64877;50.994;13.650;2023-06-22T04:41:35;9.50;;;6.57;;
76131;SDS011;64877;50.994;13.650;2023-06-22T04:44:10;9.75;;;6.65;;
76131;SDS011;64877;50.994;13.650;2023-06-22T04:46:36;7.88;;;5.80;;
76131;SDS011;64877;50.994;13.650;2023-06-22T04:49:06;8.35;;;6.20;;
76131;SDS011;64877;50.994;13.650;2023-06-22T04:51:39;8.38;;;6.15;;
76131;SDS011;64877;50.994;13.650;2023-06-22T04:54:06;10.02;;;5.93;;
76131;SDS011;64877;50.994;13.650;2023-06-22T04:56:32;9.38;;;5.60;;
76131;SDS011;64877;50.994;13.650;2023-06-22T04:58:57;6.95;;;5.38;;
76131;SDS011;64877;50.994;13.650;2023-06-22T05:01:23;10.15;;;5.45;;
76131;SDS011;64877;50.994;13.650;2023-06-22T05:03:50;7.88;;;4.80;;
76131;SDS011;64877;50.994;13.650;2023-06-22T05:06:16;8.27;;;5.28;;
76131;SDS011;64877;50.994;13.650;2023-06-22T05:08:42;9.23;;;5.40;;
76131;SDS011;64877;50.994;13.650;2023-06-22T05:11:08;9.35;;;5.55;;
76131;SDS011;64877;50.994;13.650;2023-06-22T05:13:34;9.93;;;5.30;;
76131;SDS011;64877;50.994;13.650;2023-06-22T05:15:59;9.35;;;5.78;;
76131;SDS011;64877;50.994;13.650;2023-06-22T05:18:28;8.48;;;5.38;;
76131;SDS011;64877;50.994;13.650;2023-06-22T05:20:54;11.65;;;5.68;;
76131;SDS011;64877;50.994;13.650;2023-06-22T05:23:20;8.75;;;5.60;;
76131;SDS011;64877;50.994;13.650;2023-06-22T05:25:45;16.13;;;6.35;;
76131;SDS011;64877;50.994;13.650;2023-06-22T05:28:11;8.82;;;5.65;;
76131;SDS011;64877;50.994;13.650;2023-06-22T05:30:37;8.07;;;5.35;;
76131;SDS011;64877;50.994;13.650;2023-06-22T05:33:03;8.93;;;6.57;;
76131;SDS011;64877;50.994;13.650;2023-06-22T05:35:28;13.30;;;6.53;;
76131;SDS011;64877;50.994;13.650;2023-06-22T05:37:54;13.20;;;6.22;;
76131;SDS011;64877;50.994;13.650;2023-06-22T05:40:20;8.27;;;6.10;;
76131;SDS011;64877;50.994;13.650;2023-06-22T05:42:46;13.68;;;8.50;;
76131;SDS011;64877;50.994;13.650;2023-06-22T05:45:11;13.88;;;9.20;;
76131;SDS011;64877;50.994;13.650;2023-06-22T05:47:37;12.48;;;8.85;;
76131;SDS011;64877;50.994;13.650;2023-06-22T05:50:02;11.05;;;7.00;;
76131;SDS011;64877;50.994;13.650;2023-06-22T05:52:31;10.63;;;7.15;;
76131;SDS011;64877;50.994;13.650;2023-06-22T05:54:57;10.50;;;6.28;;
76131;SDS011;64877;50.994;13.650;2023-06-22T05:57:22;7.95;;;5.68;;
76131;SDS011;64877;50.994;13.650;2023-06-22T05:59:48;7.88;;;5.68;;
76131;SDS011;64877;50.994;13.650;2023-06-22T06:02:13;9.05;;;5.82;;
76131;SDS011;64877;50.994;13.650;2023-06-22T06:04:39;8.38;;;5.82;;
76131;SDS011;64877;50.994;13.650;2023-06-22T06:07:04;10.23;;;5.53;;
76131;SDS011;64877;50.994;13.650;2023-06-22T06:09:30;6.20;;;5.00;;
76131;SDS011;64877;50.994;13.650;2023-06-22T06:11:55;8.13;;;5.57;;
76131;SDS011;64877;50.994;13.650;2023-06-22T06:14:21;6.18;;;4.90;;
76131;SDS011;64877;50.994;13.650;2023-06-22T06:16:46;6.40;;;5.38;;
76131;SDS011;64877;50.994;13.650;2023-06-22T06:19:11;10.63;;;5.47;;
76131;SDS011;64877;50.994;13.650;2023-06-22T06:21:37;7.55;;;5.25;;
76131;SDS011;64877;50.994;13.650;2023-06-22T06:24:02;7.30;;;4.88;;
76131;SDS011;64877;50.994;13.650;2023-06-22T06:26:28;7.43;;;5.28;;
76131;SDS011;64877;50.994;13.650;2023-06-22T06:28:55;9.10;;;4.93;;
76131;SDS011;64877;50.994;13.650;2023-06-22T06:31:21;8.45;;;5.43;;
76131;SDS011;64877;50.994;13.650;2023-06-22T06:33:46;11.30;;;5.30;;
76131;SDS011;64877;50.994;13.650;2023-06-22T06:36:12;8.15;;;5.35;;
76131;SDS011;64877;50.994;13.650;2023-06-22T06:38:37;8.00;;;5.43;;
76131;SDS011;64877;50.994;13.650;2023-06-22T06:41:03;9.77;;;5.30;;
76131;SDS011;64877;50.994;13.650;2023-06-22T06:43:28;8.40;;;5.55;;
76131;SDS011;64877;50.994;13.650;2023-06-22T06:45:53;8.10;;;5.53;;
76131;SDS011;64877;50.994;13.650;2023-06-22T06:48:19;9.85;;;5.43;;
76131;SDS011;64877;50.994;13.650;2023-06-22T06:50:44;7.60;;;4.85;;
76131;SDS011;64877;50.994;13.650;2023-06-22T06:53:11;9.75;;;5.75;;
76131;SDS011;64877;50.994;13.650;2023-06-22T06:55:36;8.10;;;5.30;;
76131;SDS011;64877;50.994;13.650;2023-06-22T06:58:02;6.72;;;4.90;;
76131;SDS011;64877;50.994;13.650;2023-06-22T07:00:32;8.45;;;4.95;;
76131;SDS011;64877;50.994;13.650;2023-06-22T07:02:58;7.32;;;5.22;;
76131;SDS011;64877;50.994;13.650;2023-06-22T07:05:23;6.78;;;4.30;;
76131;SDS011;64877;50.994;13.650;2023-06-22T07:07:49;8.27;;;4.75;;
76131;SDS011;64877;50.994;13.650;2023-06-22T07:10:14;7.47;;;4.68;;
76131;SDS011;64877;50.994;13.650;2023-06-22T07:12:40;10.10;;;5.18;;
76131;SDS011;64877;50.994;13.650;2023-06-22T07:15:07;6.50;;;4.75;;
76131;SDS011;64877;50.994;13.650;2023-06-22T07:17:34;7.45;;;5.50;;
76131;SDS011;64877;50.994;13.650;2023-06-22T07:20:00;9.27;;;4.63;;
76131;SDS011;64877;50.994;13.650;2023-06-22T07:22:26;8.65;;;4.88;;
76131;SDS011;64877;50.994;13.650;2023-06-22T07:24:51;5.35;;;4.40;;
76131;SDS011;64877;50.994;13.650;2023-06-22T07:27:17;7.07;;;4.47;;
76131;SDS011;64877;50.994;13.650;2023-06-22T07:29:44;8.15;;;4.53;;
76131;SDS011;64877;50.994;13.650;2023-06-22T07:32:09;5.03;;;3.97;;
76131;SDS011;64877;50.994;13.650;2023-06-22T07:34:35;7.55;;;4.38;;
76131;SDS011;64877;50.994;13.650;2023-06-22T07:37:00;6.72;;;4.10;;
76131;SDS011;64877;50.994;13.650;2023-06-22T07:39:26;6.57;;;4.30;;
76131;SDS011;64877;50.994;13.650;2023-06-22T07:41:51;7.47;;;4.47;;
76131;SDS011;64877;50.994;13.650;2023-06-22T07:44:17;7.38;;;4.03;;
76131;SDS011;64877;50.994;13.650;2023-06-22T07:46:42;7.90;;;4.60;;
76131;SDS011;64877;50.994;13.650;2023-06-22T07:49:08;7.82;;;4.32;;
76131;SDS011;64877;50.994;13.650;2023-06-22T07:51:33;9.13;;;3.95;;
76131;SDS011;64877;50.994;13.650;2023-06-22T07:53:59;5.30;;;4.13;;
76131;SDS011;64877;50.994;13.650;2023-06-22T07:56:24;7.05;;;4.43;;
76131;SDS011;64877;50.994;13.650;2023-06-22T07:58:50;6.47;;;3.95;;
76131;SDS011;64877;50.994;13.650;2023-06-22T08:01:15;6.07;;;4.20;;
76131;SDS011;64877;50.994;13.650;2023-06-22T08:03:41;9.25;;;3.67;;
76131;SDS011;64877;50.994;13.650;2023-06-22T08:06:07;6.90;;;4.57;;
76131;SDS011;64877;50.994;13.650;2023-06-22T08:08:34;8.15;;;4.47;;
76131;SDS011;64877;50.994;13.650;2023-06-22T08:11:00;9.77;;;4.72;;
76131;SDS011;64877;50.994;13.650;2023-06-22T08:13:25;8.18;;;4.75;;
76131;SDS011;64877;50.994;13.650;2023-06-22T08:15:51;6.10;;;4.10;;
76131;SDS011;64877;50.994;13.650;2023-06-22T08:18:16;8.68;;;4.75;;
76131;SDS011;64877;50.994;13.650;2023-06-22T08:20:41;4.95;;;4.05;;
76131;SDS011;64877;50.994;13.650;2023-06-22T08:23:07;5.78;;;4.40;;
76131;SDS011;64877;50.994;13.650;2023-06-22T08:25:33;4.88;;;4.03;;
76131;SDS011;64877;50.994;13.650;2023-06-22T08:27:59;7.30;;;4.30;;
76131;SDS011;64877;50.994;13.650;2023-06-22T08:30:25;5.85;;;4.25;;
76131;SDS011;64877;50.994;13.650;2023-06-22T08:32:51;8.52;;;4.55;;
76131;SDS011;64877;50.994;13.650;2023-06-22T08:35:16;6.53;;;4.72;;
76131;SDS011;64877;50.994;13.650;2023-06-22T08:37:42;6.20;;;4.20;;
76131;SDS011;64877;50.994;13.650;2023-06-22T08:40:08;6.05;;;4.40;;
76131;SDS011;64877;50.994;13.650;2023-06-22T08:42:35;6.72;;;4.70;;
76131;SDS011;64877;50.994;13.650;2023-06-22T08:45:01;7.45;;;4.25;;
76131;SDS011;64877;50.994;13.650;2023-06-22T08:47:27;9.60;;;4.32;;
76131;SDS011;64877;50.994;13.650;2023-06-22T08:49:53;5.85;;;4.40;;
76131;SDS011;64877;50.994;13.650;2023-06-22T08:52:19;10.77;;;4.97;;
76131;SDS011;64877;50.994;13.650;2023-06-22T08:54:45;7.22;;;4.85;;
76131;SDS011;64877;50.994;13.650;2023-06-22T08:57:11;5.53;;;4.60;;
76131;SDS011;64877;50.994;13.650;2023-06-22T08:59:36;7.70;;;4.93;;
76131;SDS011;64877;50.994;13.650;2023-06-22T09:02:01;7.85;;;4.75;;
76131;SDS011;64877;50.994;13.650;2023-06-22T09:04:27;7.88;;;5.05;;
76131;SDS011;64877;50.994;13.650;2023-06-22T09:06:52;6.38;;;4.90;;
76131;SDS011;64877;50.994;13.650;2023-06-22T09:09:18;6.13;;;5.35;;
76131;SDS011;64877;50.994;13.650;2023-06-22T09:11:44;6.80;;;5.25;;
76131;SDS011;64877;50.994;13.650;2023-06-22T09:14:10;7.78;;;5.28;;
76131;SDS011;64877;50.994;13.650;2023-06-22T09:16:36;6.60;;;5.47;;
76131;SDS011;64877;50.994;13.650;2023-06-22T09:19:01;7.35;;;5.45;;
76131;SDS011;64877;50.994;13.650;2023-06-22T09:21:27;6.63;;;5.28;;
76131;SDS011;64877;50.994;13.650;2023-06-22T09:23:53;6.22;;;5.50;;
76131;SDS011;64877;50.994;13.650;2023-06-22T09:26:18;6.43;;;5.15;;
76131;SDS011;64877;50.994;13.650;2023-06-22T09:28:44;6.63;;;5.18;;
76131;SDS011;64877;50.994;13.650;2023-06-22T09:31:09;9.20;;;5.25;;
76131;SDS011;64877;50.994;13.650;2023-06-22T09:33:35;12.82;;;5.40;;
76131;SDS011;64877;50.994;13.650;2023-06-22T09:36:03;9.65;;;5.60;;
76131;SDS011;64877;50.994;13.650;2023-06-22T09:38:30;7.00;;;5.55;;
76131;SDS011;64877;50.994;13.650;2023-06-22T09:40:55;6.97;;;5.43;;
76131;SDS011;64877;50.994;13.650;2023-06-22T09:43:21;7.53;;;5.70;;
76131;SDS011;64877;50.994;13.650;2023-06-22T09:45:46;8.02;;;5.80;;
76131;SDS011;64877;50.994;13.650;2023-06-22T09:48:11;8.27;;;5.63;;
76131;SDS011;64877;50.994;13.650;2023-06-22T09:50:37;7.88;;;5.13;;
76131;SDS011;64877;50.994;13.650;2023-06-22T09:53:02;10.48;;;5.60;;
76131;SDS011;64877;50.994;13.650;2023-06-22T09:55:28;9.10;;;5.10;;
76131;SDS011;64877;50.994;13.650;2023-06-22T09:57:53;7.40;;;5.38;;
76131;SDS011;64877;50.994;13.650;2023-06-22T10:02:46;8.10;;;5.32;;
76131;SDS011;64877;50.994;13.650;2023-06-22T10:05:12;9.68;;;5.40;;
76131;SDS011;64877;50.994;13.650;2023-06-22T10:07:37;9.23;;;5.30;;
76131;SDS011;64877;50.994;13.650;2023-06-22T10:10:08;8.98;;;4.80;;
76131;SDS011;64877;50.994;13.650;2023-06-22T10:12:34;6.78;;;5.07;;
76131;SDS011;64877;50.994;13.650;2023-06-22T10:14:59;6.38;;;5.70;;
76131;SDS011;64877;50.994;13.650;2023-06-22T10:17:25;7.47;;;5.10;;
76131;SDS011;64877;50.994;13.650;2023-06-22T10:19:50;6.93;;;4.95;;
76131;SDS011;64877;50.994;13.650;2023-06-22T10:22:16;7.07;;;5.20;;
76131;SDS011;64877;50.994;13.650;2023-06-22T10:24:41;6.47;;;4.97;;
76131;SDS011;64877;50.994;13.650;2023-06-22T10:27:10;7.30;;;5.35;;
76131;SDS011;64877;50.994;13.650;2023-06-22T10:29:36;7.38;;;5.00;;
76131;SDS011;64877;50.994;13.650;2023-06-22T10:32:02;6.05;;;4.88;;
76131;SDS011;64877;50.994;13.650;2023-06-22T10:34:27;5.80;;;4.97;;
76131;SDS011;64877;50.994;13.650;2023-06-22T10:36:52;6.72;;;5.40;;
76131;SDS011;64877;50.994;13.650;2023-06-22T10:39:18;6.82;;;5.13;;
76131;SDS011;64877;50.994;13.650;2023-06-22T10:41:43;6.45;;;4.93;;
76131;SDS011;64877;50.994;13.650;2023-06-22T10:44:09;7.43;;;4.75;;
76131;SDS011;64877;50.994;13.650;2023-06-22T10:46:34;10.60;;;5.25;;
76131;SDS011;64877;50.994;13.650;2023-06-22T10:49:00;6.75;;;5.18;;
76131;SDS011;64877;50.994;13.650;2023-06-22T10:51:25;5.78;;;4.60;;
76131;SDS011;64877;50.994;13.650;2023-06-22T10:53:53;6.80;;;4.82;;
76131;SDS011;64877;50.994;13.650;2023-06-22T10:56:18;6.03;;;5.10;;
76131;SDS011;64877;50.994;13.650;2023-06-22T10:58:44;8.13;;;5.05;;
76131;SDS011;64877;50.994;13.650;2023-06-22T11:01:10;7.60;;;4.95;;
76131;SDS011;64877;50.994;13.650;2023-06-22T11:03:36;7.10;;;5.30;;
76131;SDS011;64877;50.994;13.650;2023-06-22T11:06:01;7.13;;;4.80;;
76131;SDS011;64877;50.994;13.650;2023-06-22T11:08:26;10.48;;;5.50;;
76131;SDS011;64877;50.994;13.650;2023-06-22T11:10:52;7.05;;;5.00;;
76131;SDS011;64877;50.994;13.650;2023-06-22T11:13:17;7.70;;;5.50;;
76131;SDS011;64877;50.994;13.650;2023-06-22T11:15:43;6.63;;;4.85;;
76131;SDS011;64877;50.994;13.650;2023-06-22T11:18:08;10.27;;;6.07;;
76131;SDS011;64877;50.994;13.650;2023-06-22T11:20:34;8.20;;;4.75;;
76131;SDS011;64877;50.994;13.650;2023-06-22T11:23:03;6.70;;;5.55;;
76131;SDS011;64877;50.994;13.650;2023-06-22T11:27:55;6.83;;;4.53;;
76131;SDS011;64877;50.994;13.650;2023-06-22T11:30:20;7.28;;;4.97;;
76131;SDS011;64877;50.994;13.650;2023-06-22T11:32:46;6.18;;;4.93;;
76131;SDS011;64877;50.994;13.650;2023-06-22T11:35:11;9.63;;;4.60;;
76131;SDS011;64877;50.994;13.650;2023-06-22T11:37:37;7.40;;;5.20;;
76131;SDS011;64877;50.994;13.650;2023-06-22T11:40:02;7.65;;;4.85;;
76131;SDS011;64877;50.994;13.650;2023-06-22T11:42:30;6.85;;;4.88;;
76131;SDS011;64877;50.994;13.650;2023-06-22T11:44:55;7.88;;;4.45;;
76131;SDS011;64877;50.994;13.650;2023-06-22T11:47:21;6.22;;;5.00;;
76131;SDS011;64877;50.994;13.650;2023-06-22T11:49:46;7.68;;;5.55;;
76131;SDS011;64877;50.994;13.650;2023-06-22T11:52:12;8.15;;;5.05;;
76131;SDS011;64877;50.994;13.650;2023-06-22T11:54:37;6.80;;;4.70;;
76131;SDS011;64877;50.994;13.650;2023-06-22T11:57:03;7.85;;;4.75;;
76131;SDS011;64877;50.994;13.650;2023-06-22T11:59:29;7.18;;;4.85;;
76131;SDS011;64877;50.994;13.650;2023-06-22T12:01:54;6.65;;;4.90;;
76131;SDS011;64877;50.994;13.650;2023-06-22T12:04:20;5.80;;;4.35;;
76131;SDS011;64877;50.994;13.650;2023-06-22T12:06:45;7.32;;;5.40;;
76131;SDS011;64877;50.994;13.650;2023-06-22T12:09:11;7.68;;;4.85;;
76131;SDS011;64877;50.994;13.650;2023-06-22T12:11:38;5.95;;;4.75;;
76131;SDS011;64877;50.994;13.650;2023-06-22T12:14:04;6.75;;;5.38;;
76131;SDS011;64877;50.994;13.650;2023-06-22T12:16:29;6.38;;;4.88;;
76131;SDS011;64877;50.994;13.650;2023-06-22T12:18:54;11.80;;;4.97;;
76131;SDS011;64877;50.994;13.650;2023-06-22T12:21:20;9.50;;;4.93;;
76131;SDS011;64877;50.994;13.650;2023-06-22T12:23:45;6.75;;;5.30;;
76131;SDS011;64877;50.994;13.650;2023-06-22T12:26:11;8.25;;;5.10;;
76131;SDS011;64877;50.994;13.650;2023-06-22T12:28:36;8.27;;;5.25;;
76131;SDS011;64877;50.994;13.650;2023-06-22T12:31:01;6.20;;;4.65;;
76131;SDS011;64877;50.994;13.650;2023-06-22T12:33:27;7.85;;;5.53;;
76131;SDS011;64877;50.994;13.650;2023-06-22T12:35:52;5.95;;;5.10;;
76131;SDS011;64877;50.994;13.650;2023-06-22T12:38:17;8.70;;;5.40;;
76131;SDS011;64877;50.994;13.650;2023-06-22T12:40:43;9.68;;;5.38;;
76131;SDS011;64877;50.994;13.650;2023-06-22T12:43:08;7.65;;;5.10;;
76131;SDS011;64877;50.994;13.650;2023-06-22T12:45:34;9.52;;;5.63;;
76131;SDS011;64877;50.994;13.650;2023-06-22T12:47:59;7.68;;;5.07;;
76131;SDS011;64877;50.994;13.650;2023-06-22T12:50:26;7.05;;;5.10;;
76131;SDS011;64877;50.994;13.650;2023-06-22T12:52:51;6.88;;;4.72;;
76131;SDS011;64877;50.994;13.650;2023-06-22T12:55:17;7.40;;;5.10;;
76131;SDS011;64877;50.994;13.650;2023-06-22T12:57:42;12.77;;;4.78;;
76131;SDS011;64877;50.994;13.650;2023-06-22T13:00:07;5.90;;;5.10;;
76131;SDS011;64877;50.994;13.650;2023-06-22T13:02:35;6.43;;;5.22;;
76131;SDS011;64877;50.994;13.650;2023-06-22T13:05:01;6.30;;;5.22;;
76131;SDS011;64877;50.994;13.650;2023-06-22T13:07:27;6.32;;;5.20;;
76131;SDS011;64877;50.994;13.650;2023-06-22T13:09:52;8.20;;;4.78;;
76131;SDS011;64877;50.994;13.650;2023-06-22T13:12:18;8.23;;;5.07;;
76131;SDS011;64877;50.994;13.650;2023-06-22T13:14:45;6.18;;;4.85;;
76131;SDS011;64877;50.994;13.650;2023-06-22T13:17:11;7.10;;;4.70;;
76131;SDS011;64877;50.994;13.650;2023-06-22T13:19:37;6.35;;;4.75;;
76131;SDS011;64877;50.994;13.650;2023-06-22T13:22:03;6.78;;;4.65;;
76131;SDS011;64877;50.994;13.650;2023-06-22T13:24:29;6.57;;;4.90;;
76131;SDS011;64877;50.994;13.650;2023-06-22T13:26:54;7.07;;;5.85;;
76131;SDS011;64877;50.994;13.650;2023-06-22T13:29:20;5.80;;;4.85;;
76131;SDS011;64877;50.994;13.650;2023-06-22T13:31:45;7.07;;;4.60;;
76131;SDS011;64877;50.994;13.650;2023-06-22T13:34:11;6.03;;;4.65;;
76131;SDS011;64877;50.994;13.650;2023-06-22T13:36:36;6.20;;;4.55;;
76131;SDS011;64877;50.994;13.650;2023-06-22T13:39:02;6.22;;;5.03;;
76131;SDS011;64877;50.994;13.650;2023-06-22T13:41:28;7.07;;;4.70;;
76131;SDS011;64877;50.994;13.650;2023-06-22T13:43:54;7.47;;;4.78;;
76131;SDS011;64877;50.994;13.650;2023-06-22T13:46:19;6.97;;;4.32;;
76131;SDS011;64877;50.994;13.650;2023-06-22T13:48:45;6.63;;;4.68;;
76131;SDS011;64877;50.994;13.650;2023-06-22T13:51:10;6.75;;;4.28;;
76131;SDS011;64877;50.994;13.650;2023-06-22T13:53:35;5.65;;;4.68;;
76131;SDS011;64877;50.994;13.650;2023-06-22T13:56:01;5.53;;;4.30;;
76131;SDS011;64877;50.994;13.650;2023-06-22T13:58:26;8.73;;;5.03;;
76131;SDS011;64877;50.994;13.650;2023-06-22T14:00:51;7.03;;;4.65;;
76131;SDS011;64877;50.994;13.650;2023-06-22T14:03:17;6.75;;;4.80;;
76131;SDS011;64877;50.994;13.650;2023-06-22T14:05:42;6.28;;;4.43;;
76131;SDS011;64877;50.994;13.650;2023-06-22T14:08:08;6.45;;;4.43;;
76131;SDS011;64877;50.994;13.650;2023-06-22T14:10:34;9.10;;;4.88;;
76131;SDS011;64877;50.994;13.650;2023-06-22T14:12:59;8.60;;;4.75;;
76131;SDS011;64877;50.994;13.650;2023-06-22T14:15:25;6.40;;;4.72;;
76131;SDS011;64877;50.994;13.650;2023-06-22T14:17:51;10.13;;;4.63;;
76131;SDS011;64877;50.994;13.650;2023-06-22T14:20:17;7.28;;;5.03;;
76131;SDS011;64877;50.994;13.650;2023-06-22T14:22:43;11.30;;;5.75;;
76131;SDS011;64877;50.994;13.650;2023-06-22T14:25:08;8.05;;;4.88;;
76131;SDS011;64877;50.994;13.650;2023-06-22T14:27:34;6.75;;;4.75;;
76131;SDS011;64877;50.994;13.650;2023-06-22T14:29:59;6.68;;;5.05;;
76131;SDS011;64877;50.994;13.650;2023-06-22T14:32:25;9.27;;;4.45;;
76131;SDS011;64877;50.994;13.650;2023-06-22T14:34:54;9.48;;;5.10;;
76131;SDS011;64877;50.994;13.650;2023-06-22T14:37:20;8.07;;;4.53;;
76131;SDS011;64877;50.994;13.650;2023-06-22T14:39:45;8.35;;;4.60;;
76131;SDS011;64877;50.994;13.650;2023-06-22T14:42:10;6.43;;;4.72;;